sensor_id;sensor_type;location;lat;lon;timestamp;temperature;humidity
44823;DHT22;51097;51.984;5.650;2023-07-29T00:01:24;21.80;99.90
44823;DHT22;51097;51.984;5.650;2023-07-29T00:03:49;21.70;99.90
44823;DHT22;51097;51.984;5.650;2023-07-29T00:06:15;21.70;99.90
44823;DHT22;51097;51.984;5.650;2023-07-29T00:08:41;21.70;99.90
44823;DHT22;51097;51.984;5.650;2023-07-29T00:11:06;21.60;99.90
44823;DHT22;51097;51.984;5.650;2023-07-29T00:13:32;21.60;99.90
44823;DHT22;51097;51.984;5.650;2023-07-29T00:15:58;21.50;99.90
44823;DHT22;51097;51.984;5.650;2023-07-29T00:18:23;21.50;99.90
44823;DHT22;51097;51.984;5.650;2023-07-29T00:20:49;21.50;99.90
44823;DHT22;51097;51.984;5.650;2023-07-29T00:23:17;21.40;99.90
44823;DHT22;51097;51.984;5.650;2023-07-29T00:25:44;21.50;99.90
44823;DHT22;51097;51.984;5.650;2023-07-29T00:28:10;21.30;99.90
44823;DHT22;51097;51.984;5.650;2023-07-29T00:30:36;21.30;99.90
44823;DHT22;51097;51.984;5.650;2023-07-29T00:33:02;21.30;99.90
44823;DHT22;51097;51.984;5.650;2023-07-29T00:35:27;21.20;99.90
44823;DHT22;51097;51.984;5.650;2023-07-29T00:37:53;21.30;99.90
44823;DHT22;51097;51.984;5.650;2023-07-29T00:40:22;21.20;99.90
44823;DHT22;51097;51.984;5.650;2023-07-29T00:42:49;21.10;99.90
44823;DHT22;51097;51.984;5.650;2023-07-29T00:45:15;21.10;99.90
44823;DHT22;51097;51.984;5.650;2023-07-29T00:47:41;21.10;99.90
44823;DHT22;51097;51.984;5.650;2023-07-29T00:50:09;21.10;99.90
44823;DHT22;51097;51.984;5.650;2023-07-29T00:52:36;21.10;99.90
44823;DHT22;51097;51.984;5.650;2023-07-29T00:55:02;21.00;99.90
44823;DHT22;51097;51.984;5.650;2023-07-29T00:57:30;21.10;99.90
44823;DHT22;51097;51.984;5.650;2023-07-29T00:59:56;21.10;99.90
44823;DHT22;51097;51.984;5.650;2023-07-29T01:02:21;21.00;99.90
44823;DHT22;51097;51.984;5.650;2023-07-29T01:04:58;21.00;99.90
44823;DHT22;51097;51.984;5.650;2023-07-29T01:07:44;20.90;99.90
44823;DHT22;51097;51.984;5.650;2023-07-29T01:16:09;21.10;99.90
44823;DHT22;51097;51.984;5.650;2023-07-29T01:18:36;21.10;99.90
44823;DHT22;51097;51.984;5.650;2023-07-29T01:21:04;21.10;99.90
44823;DHT22;51097;51.984;5.650;2023-07-29T01:23:34;21.10;99.90
44823;DHT22;51097;51.984;5.650;2023-07-29T01:26:00;21.00;99.90
44823;DHT22;51097;51.984;5.650;2023-07-29T01:28:27;21.10;99.90
44823;DHT22;51097;51.984;5.650;2023-07-29T01:30:59;21.10;99.90
44823;DHT22;51097;51.984;5.650;2023-07-29T01:33:32;21.00;99.90
44823;DHT22;51097;51.984;5.650;2023-07-29T01:36:03;21.20;99.90
44823;DHT22;51097;51.984;5.650;2023-07-29T01:38:35;21.20;99.90
44823;DHT22;51097;51.984;5.650;2023-07-29T01:41:02;21.20;99.90
44823;DHT22;51097;51.984;5.650;2023-07-29T01:43:31;21.20;99.90
44823;DHT22;51097;51.984;5.650;2023-07-29T01:45:57;21.30;99.90
44823;DHT22;51097;51.984;5.650;2023-07-29T01:48:23;21.50;99.90
44823;DHT22;51097;51.984;5.650;2023-07-29T01:50:49;21.40;99.90
44823;DHT22;51097;51.984;5.650;2023-07-29T01:53:14;21.30;99.90
44823;DHT22;51097;51.984;5.650;2023-07-29T01:55:41;21.40;99.90
44823;DHT22;51097;51.984;5.650;2023-07-29T01:58:07;21.40;99.90
44823;DHT22;51097;51.984;5.650;2023-07-29T02:00:32;21.50;99.90
44823;DHT22;51097;51.984;5.650;2023-07-29T02:02:58;21.50;99.90
44823;DHT22;51097;51.984;5.650;2023-07-29T02:05:23;21.50;99.90
44823;DHT22;51097;51.984;5.650;2023-07-29T02:07:49;21.60;99.90
44823;DHT22;51097;51.984;5.650;2023-07-29T02:10:15;21.60;99.90
44823;DHT22;51097;51.984;5.650;2023-07-29T02:12:41;21.60;99.90
44823;DHT22;51097;51.984;5.650;2023-07-29T02:15:07;21.70;99.90
44823;DHT22;51097;51.984;5.650;2023-07-29T02:17:32;21.60;99.90
44823;DHT22;51097;51.984;5.650;2023-07-29T02:19:58;21.60;99.90
44823;DHT22;51097;51.984;5.650;2023-07-29T02:22:23;21.50;99.90
44823;DHT22;51097;51.984;5.650;2023-07-29T02:24:49;21.60;99.90
44823;DHT22;51097;51.984;5.650;2023-07-29T02:27:15;21.60;99.90
44823;DHT22;51097;51.984;5.650;2023-07-29T02:29:40;21.60;99.90
44823;DHT22;51097;51.984;5.650;2023-07-29T02:32:06;21.70;99.90
44823;DHT22;51097;51.984;5.650;2023-07-29T02:34:32;21.70;99.90
44823;DHT22;51097;51.984;5.650;2023-07-29T02:36:58;21.60;99.90
44823;DHT22;51097;51.984;5.650;2023-07-29T02:39:23;21.70;99.90
44823;DHT22;51097;51.984;5.650;2023-07-29T02:41:49;21.60;99.90
44823;DHT22;51097;51.984;5.650;2023-07-29T02:44:15;21.80;99.90
44823;DHT22;51097;51.984;5.650;2023-07-29T02:46:41;21.80;99.90
44823;DHT22;51097;51.984;5.650;2023-07-29T02:49:07;21.80;99.90
44823;DHT22;51097;51.984;5.650;2023-07-29T02:51:32;21.80;99.90
44823;DHT22;51097;51.984;5.650;2023-07-29T02:53:58;21.90;99.90
44823;DHT22;51097;51.984;5.650;2023-07-29T02:56:24;21.80;99.90
44823;DHT22;51097;51.984;5.650;2023-07-29T02:58:49;21.70;99.90
44823;DHT22;51097;51.984;5.650;2023-07-29T03:01:17;21.70;99.90
44823;DHT22;51097;51.984;5.650;2023-07-29T03:03:43;21.80;99.90
44823;DHT22;51097;51.984;5.650;2023-07-29T03:06:10;21.80;99.90
44823;DHT22;51097;51.984;5.650;2023-07-29T03:08:36;21.80;99.90
44823;DHT22;51097;51.984;5.650;2023-07-29T03:11:20;21.70;99.90
44823;DHT22;51097;51.984;5.650;2023-07-29T03:13:46;21.80;99.90
44823;DHT22;51097;51.984;5.650;2023-07-29T03:16:16;21.80;99.90
44823;DHT22;51097;51.984;5.650;2023-07-29T03:18:42;21.70;99.90
44823;DHT22;51097;51.984;5.650;2023-07-29T03:21:09;21.70;99.90
44823;DHT22;51097;51.984;5.650;2023-07-29T03:23:36;21.60;99.90
44823;DHT22;51097;51.984;5.650;2023-07-29T03:26:03;21.60;99.90
44823;DHT22;51097;51.984;5.650;2023-07-29T03:28:36;21.70;99.90
44823;DHT22;51097;51.984;5.650;2023-07-29T03:31:02;21.60;99.90
44823;DHT22;51097;51.984;5.650;2023-07-29T03:33:28;21.60;99.90
44823;DHT22;51097;51.984;5.650;2023-07-29T03:35:54;21.50;99.90
44823;DHT22;51097;51.984;5.650;2023-07-29T03:38:19;21.50;99.90
44823;DHT22;51097;51.984;5.650;2023-07-29T03:40:45;21.50;99.90
44823;DHT22;51097;51.984;5.650;2023-07-29T03:43:11;21.40;99.90
44823;DHT22;51097;51.984;5.650;2023-07-29T03:45:37;21.40;99.90
44823;DHT22;51097;51.984;5.650;2023-07-29T03:48:03;21.40;99.90
44823;DHT22;51097;51.984;5.650;2023-07-29T03:50:29;21.40;99.90
44823;DHT22;51097;51.984;5.650;2023-07-29T03:52:55;21.40;99.90
44823;DHT22;51097;51.984;5.650;2023-07-29T03:55:21;21.40;99.90
44823;DHT22;51097;51.984;5.650;2023-07-29T03:57:47;21.30;99.90
44823;DHT22;51097;51.984;5.650;2023-07-29T04:00:13;21.30;99.90
44823;DHT22;51097;51.984;5.650;2023-07-29T04:02:38;21.30;99.90
44823;DHT22;51097;51.984;5.650;2023-07-29T04:05:05;21.30;99.90
44823;DHT22;51097;51.984;5.650;2023-07-29T04:07:34;21.30;99.90
44823;DHT22;51097;51.984;5.650;2023-07-29T04:09:59;21.30;99.90
44823;DHT22;51097;51.984;5.650;2023-07-29T04:12:26;21.30;99.90
44823;DHT22;51097;51.984;5.650;2023-07-29T04:14:51;21.30;99.90
44823;DHT22;51097;51.984;5.650;2023-07-29T04:17:17;21.30;99.90
44823;DHT22;51097;51.984;5.650;2023-07-29T04:19:42;21.20;99.90
44823;DHT22;51097;51.984;5.650;2023-07-29T04:22:08;21.20;99.90
44823;DHT22;51097;51.984;5.650;2023-07-29T04:24:34;21.10;99.90
44823;DHT22;51097;51.984;5.650;2023-07-29T04:26:59;21.00;99.90
44823;DHT22;51097;51.984;5.650;2023-07-29T04:29:25;20.90;99.90
44823;DHT22;51097;51.984;5.650;2023-07-29T04:31:51;20.90;99.90
44823;DHT22;51097;51.984;5.650;2023-07-29T04:34:19;20.90;99.90
44823;DHT22;51097;51.984;5.650;2023-07-29T04:36:46;20.90;99.90
44823;DHT22;51097;51.984;5.650;2023-07-29T04:39:12;20.90;99.90
44823;DHT22;51097;51.984;5.650;2023-07-29T04:41:37;21.10;99.90
44823;DHT22;51097;51.984;5.650;2023-07-29T04:44:03;21.00;99.90
44823;DHT22;51097;51.984;5.650;2023-07-29T04:46:29;21.00;99.90
44823;DHT22;51097;51.984;5.650;2023-07-29T04:48:54;21.00;99.90
44823;DHT22;51097;51.984;5.650;2023-07-29T04:51:21;20.90;99.90
44823;DHT22;51097;51.984;5.650;2023-07-29T04:53:47;21.00;99.90
44823;DHT22;51097;51.984;5.650;2023-07-29T04:56:12;21.00;99.90
44823;DHT22;51097;51.984;5.650;2023-07-29T04:58:38;20.90;99.90
44823;DHT22;51097;51.984;5.650;2023-07-29T05:01:04;21.00;99.90
44823;DHT22;51097;51.984;5.650;2023-07-29T05:03:30;21.00;99.90
44823;DHT22;51097;51.984;5.650;2023-07-29T05:05:56;20.80;99.90
44823;DHT22;51097;51.984;5.650;2023-07-29T05:08:22;20.80;99.90
44823;DHT22;51097;51.984;5.650;2023-07-29T05:10:52;20.90;99.90
44823;DHT22;51097;51.984;5.650;2023-07-29T05:13:18;21.00;99.90
44823;DHT22;51097;51.984;5.650;2023-07-29T05:15:43;20.90;99.90
44823;DHT22;51097;51.984;5.650;2023-07-29T05:18:09;21.10;99.90
44823;DHT22;51097;51.984;5.650;2023-07-29T05:20:35;21.00;99.90
44823;DHT22;51097;51.984;5.650;2023-07-29T05:23:00;21.00;99.90
44823;DHT22;51097;51.984;5.650;2023-07-29T05:25:26;21.10;99.90
44823;DHT22;51097;51.984;5.650;2023-07-29T05:27:52;21.10;99.90
44823;DHT22;51097;51.984;5.650;2023-07-29T05:30:17;21.10;99.90
44823;DHT22;51097;51.984;5.650;2023-07-29T05:32:43;21.10;99.90
44823;DHT22;51097;51.984;5.650;2023-07-29T05:35:10;21.00;99.90
44823;DHT22;51097;51.984;5.650;2023-07-29T05:37:38;21.10;99.90
44823;DHT22;51097;51.984;5.650;2023-07-29T05:40:06;21.00;99.90
44823;DHT22;51097;51.984;5.650;2023-07-29T05:42:32;21.10;99.90
44823;DHT22;51097;51.984;5.650;2023-07-29T05:44:58;21.10;99.90
44823;DHT22;51097;51.984;5.650;2023-07-29T05:47:23;21.10;99.90
44823;DHT22;51097;51.984;5.650;2023-07-29T05:49:49;21.20;99.90
44823;DHT22;51097;51.984;5.650;2023-07-29T05:52:15;21.10;99.90
44823;DHT22;51097;51.984;5.650;2023-07-29T05:54:40;21.30;99.90
44823;DHT22;51097;51.984;5.650;2023-07-29T05:57:11;21.30;99.90
44823;DHT22;51097;51.984;5.650;2023-07-29T05:59:37;21.20;99.90
44823;DHT22;51097;51.984;5.650;2023-07-29T06:02:02;21.40;99.90
44823;DHT22;51097;51.984;5.650;2023-07-29T06:04:28;21.30;99.90
44823;DHT22;51097;51.984;5.650;2023-07-29T06:06:54;21.30;99.90
44823;DHT22;51097;51.984;5.650;2023-07-29T06:09:21;21.40;99.90
44823;DHT22;51097;51.984;5.650;2023-07-29T06:11:47;21.50;99.90
44823;DHT22;51097;51.984;5.650;2023-07-29T06:14:12;21.60;99.90
44823;DHT22;51097;51.984;5.650;2023-07-29T06:16:38;21.70;99.90
44823;DHT22;51097;51.984;5.650;2023-07-29T06:19:04;21.80;99.90
44823;DHT22;51097;51.984;5.650;2023-07-29T06:21:30;21.90;99.90
44823;DHT22;51097;51.984;5.650;2023-07-29T06:23:55;21.90;99.90
44823;DHT22;51097;51.984;5.650;2023-07-29T06:26:21;22.10;99.90
44823;DHT22;51097;51.984;5.650;2023-07-29T06:28:46;22.10;99.90
44823;DHT22;51097;51.984;5.650;2023-07-29T06:31:12;22.20;99.90
44823;DHT22;51097;51.984;5.650;2023-07-29T06:33:37;22.30;99.90
44823;DHT22;51097;51.984;5.650;2023-07-29T06:36:03;22.40;99.90
44823;DHT22;51097;51.984;5.650;2023-07-29T06:38:29;22.40;99.90
44823;DHT22;51097;51.984;5.650;2023-07-29T06:40:55;22.40;99.90
44823;DHT22;51097;51.984;5.650;2023-07-29T06:43:20;22.50;99.90
44823;DHT22;51097;51.984;5.650;2023-07-29T06:45:46;22.60;99.90
44823;DHT22;51097;51.984;5.650;2023-07-29T06:48:12;22.70;99.90
44823;DHT22;51097;51.984;5.650;2023-07-29T06:50:38;22.60;99.90
44823;DHT22;51097;51.984;5.650;2023-07-29T06:53:03;22.80;99.90
44823;DHT22;51097;51.984;5.650;2023-07-29T06:55:29;22.90;99.90
44823;DHT22;51097;51.984;5.650;2023-07-29T06:57:55;22.90;99.90
44823;DHT22;51097;51.984;5.650;2023-07-29T07:00:20;22.90;99.90
44823;DHT22;51097;51.984;5.650;2023-07-29T07:02:46;23.00;99.90
44823;DHT22;51097;51.984;5.650;2023-07-29T07:05:11;23.00;99.90
44823;DHT22;51097;51.984;5.650;2023-07-29T07:07:37;23.10;99.90
44823;DHT22;51097;51.984;5.650;2023-07-29T07:10:03;23.20;99.90
44823;DHT22;51097;51.984;5.650;2023-07-29T07:12:29;23.30;99.90
44823;DHT22;51097;51.984;5.650;2023-07-29T07:14:54;23.50;99.90
44823;DHT22;51097;51.984;5.650;2023-07-29T07:17:20;23.50;99.90
44823;DHT22;51097;51.984;5.650;2023-07-29T07:19:46;23.70;99.90
44823;DHT22;51097;51.984;5.650;2023-07-29T07:22:12;23.70;99.90
44823;DHT22;51097;51.984;5.650;2023-07-29T07:24:37;23.70;99.90
44823;DHT22;51097;51.984;5.650;2023-07-29T07:27:03;23.70;99.90
44823;DHT22;51097;51.984;5.650;2023-07-29T07:29:29;23.80;99.90
44823;DHT22;51097;51.984;5.650;2023-07-29T07:31:56;23.90;99.90
44823;DHT22;51097;51.984;5.650;2023-07-29T07:34:22;24.10;99.90
44823;DHT22;51097;51.984;5.650;2023-07-29T07:36:48;24.10;99.90
44823;DHT22;51097;51.984;5.650;2023-07-29T07:39:14;24.10;99.90
44823;DHT22;51097;51.984;5.650;2023-07-29T07:41:41;24.10;99.90
44823;DHT22;51097;51.984;5.650;2023-07-29T07:44:07;24.20;99.90
44823;DHT22;51097;51.984;5.650;2023-07-29T07:46:32;24.30;99.90
44823;DHT22;51097;51.984;5.650;2023-07-29T07:48:58;24.30;99.90
44823;DHT22;51097;51.984;5.650;2023-07-29T07:51:23;24.40;99.90
44823;DHT22;51097;51.984;5.650;2023-07-29T07:53:49;24.50;99.90
44823;DHT22;51097;51.984;5.650;2023-07-29T07:56:15;24.60;99.90
44823;DHT22;51097;51.984;5.650;2023-07-29T07:58:41;24.70;99.90
44823;DHT22;51097;51.984;5.650;2023-07-29T08:01:07;24.80;99.90
44823;DHT22;51097;51.984;5.650;2023-07-29T08:03:34;24.80;99.90
44823;DHT22;51097;51.984;5.650;2023-07-29T08:06:00;24.90;99.90
44823;DHT22;51097;51.984;5.650;2023-07-29T08:08:27;24.80;99.90
44823;DHT22;51097;51.984;5.650;2023-07-29T08:10:53;24.90;99.90
44823;DHT22;51097;51.984;5.650;2023-07-29T08:13:20;25.00;99.90
44823;DHT22;51097;51.984;5.650;2023-07-29T08:15:52;25.00;99.90
44823;DHT22;51097;51.984;5.650;2023-07-29T08:18:18;25.10;99.90
44823;DHT22;51097;51.984;5.650;2023-07-29T08:20:58;25.00;99.90
44823;DHT22;51097;51.984;5.650;2023-07-29T08:23:25;25.10;99.90
44823;DHT22;51097;51.984;5.650;2023-07-29T08:25:55;25.10;99.90
44823;DHT22;51097;51.984;5.650;2023-07-29T08:28:22;25.30;99.90
44823;DHT22;51097;51.984;5.650;2023-07-29T08:30:48;25.30;99.90
44823;DHT22;51097;51.984;5.650;2023-07-29T08:33:24;25.30;99.90
44823;DHT22;51097;51.984;5.650;2023-07-29T08:35:49;25.30;99.90
44823;DHT22;51097;51.984;5.650;2023-07-29T08:38:15;25.30;99.90
44823;DHT22;51097;51.984;5.650;2023-07-29T08:40:46;25.40;99.90
44823;DHT22;51097;51.984;5.650;2023-07-29T08:43:17;25.50;99.90
44823;DHT22;51097;51.984;5.650;2023-07-29T08:45:44;25.60;99.90
44823;DHT22;51097;51.984;5.650;2023-07-29T08:48:10;25.60;99.90
44823;DHT22;51097;51.984;5.650;2023-07-29T08:50:37;25.70;99.90
44823;DHT22;51097;51.984;5.650;2023-07-29T08:53:06;25.70;99.90
44823;DHT22;51097;51.984;5.650;2023-07-29T08:55:32;25.70;99.90
44823;DHT22;51097;51.984;5.650;2023-07-29T08:57:59;25.80;99.90
44823;DHT22;51097;51.984;5.650;2023-07-29T09:00:28;25.80;99.90
44823;DHT22;51097;51.984;5.650;2023-07-29T09:02:54;25.70;99.90
44823;DHT22;51097;51.984;5.650;2023-07-29T09:05:21;25.60;99.90
44823;DHT22;51097;51.984;5.650;2023-07-29T09:07:47;25.60;99.90
44823;DHT22;51097;51.984;5.650;2023-07-29T09:10:15;25.60;99.90
44823;DHT22;51097;51.984;5.650;2023-07-29T09:12:41;25.50;99.90
44823;DHT22;51097;51.984;5.650;2023-07-29T09:15:07;25.40;99.90
44823;DHT22;51097;51.984;5.650;2023-07-29T09:17:33;25.40;99.90
44823;DHT22;51097;51.984;5.650;2023-07-29T09:19:59;25.40;99.90
44823;DHT22;51097;51.984;5.650;2023-07-29T09:22:27;25.40;99.90
44823;DHT22;51097;51.984;5.650;2023-07-29T09:24:53;25.40;99.90
44823;DHT22;51097;51.984;5.650;2023-07-29T09:27:29;25.50;99.90
44823;DHT22;51097;51.984;5.650;2023-07-29T09:29:57;25.60;99.90
44823;DHT22;51097;51.984;5.650;2023-07-29T09:32:24;25.70;99.90
44823;DHT22;51097;51.984;5.650;2023-07-29T09:34:51;25.80;99.90
44823;DHT22;51097;51.984;5.650;2023-07-29T09:37:25;26.00;99.90
44823;DHT22;51097;51.984;5.650;2023-07-29T09:39:52;26.30;99.90
44823;DHT22;51097;51.984;5.650;2023-07-29T09:42:21;26.60;99.90
44823;DHT22;51097;51.984;5.650;2023-07-29T09:44:50;26.90;99.90
44823;DHT22;51097;51.984;5.650;2023-07-29T09:47:23;27.00;99.90
44823;DHT22;51097;51.984;5.650;2023-07-29T09:49:50;27.20;99.90
44823;DHT22;51097;51.984;5.650;2023-07-29T09:52:17;27.60;99.90
44823;DHT22;51097;51.984;5.650;2023-07-29T09:54:44;27.70;99.90
44823;DHT22;51097;51.984;5.650;2023-07-29T09:57:14;27.80;99.90
44823;DHT22;51097;51.984;5.650;2023-07-29T09:59:40;28.20;99.90
44823;DHT22;51097;51.984;5.650;2023-07-29T10:02:13;28.40;99.90
44823;DHT22;51097;51.984;5.650;2023-07-29T10:04:39;28.70;99.90
44823;DHT22;51097;51.984;5.650;2023-07-29T10:07:05;28.90;99.90
44823;DHT22;51097;51.984;5.650;2023-07-29T10:09:31;29.10;99.90
44823;DHT22;51097;51.984;5.650;2023-07-29T10:11:58;29.20;99.90
44823;DHT22;51097;51.984;5.650;2023-07-29T10:14:27;29.20;99.90
44823;DHT22;51097;51.984;5.650;2023-07-29T10:16:53;29.20;99.90
44823;DHT22;51097;51.984;5.650;2023-07-29T10:19:19;29.20;99.90
44823;DHT22;51097;51.984;5.650;2023-07-29T10:21:48;29.20;99.90
44823;DHT22;51097;51.984;5.650;2023-07-29T10:24:19;29.00;99.90
44823;DHT22;51097;51.984;5.650;2023-07-29T10:26:49;29.00;99.90
44823;DHT22;51097;51.984;5.650;2023-07-29T10:29:19;29.00;99.90
44823;DHT22;51097;51.984;5.650;2023-07-29T10:31:46;29.10;99.90
44823;DHT22;51097;51.984;5.650;2023-07-29T10:34:12;29.20;99.90
44823;DHT22;51097;51.984;5.650;2023-07-29T10:36:39;29.10;99.90
44823;DHT22;51097;51.984;5.650;2023-07-29T10:39:07;29.10;99.90
44823;DHT22;51097;51.984;5.650;2023-07-29T10:42:01;29.10;99.90
44823;DHT22;51097;51.984;5.650;2023-07-29T10:44:56;29.30;99.90
44823;DHT22;51097;51.984;5.650;2023-07-29T10:49:51;29.50;99.90
44823;DHT22;51097;51.984;5.650;2023-07-29T10:54:54;29.40;99.90
44823;DHT22;51097;51.984;5.650;2023-07-29T10:57:35;29.30;99.90
44823;DHT22;51097;51.984;5.650;2023-07-29T11:00:02;29.10;99.90
44823;DHT22;51097;51.984;5.650;2023-07-29T11:02:36;29.00;99.90
44823;DHT22;51097;51.984;5.650;2023-07-29T11:05:16;28.90;99.90
44823;DHT22;51097;51.984;5.650;2023-07-29T11:07:48;28.80;99.90
44823;DHT22;51097;51.984;5.650;2023-07-29T11:10:14;28.70;99.90
44823;DHT22;51097;51.984;5.650;2023-07-29T11:12:51;28.50;99.90
44823;DHT22;51097;51.984;5.650;2023-07-29T11:15:27;28.40;99.90
44823;DHT22;51097;51.984;5.650;2023-07-29T11:17:57;28.20;99.90
44823;DHT22;51097;51.984;5.650;2023-07-29T11:20:31;28.10;99.90
44823;DHT22;51097;51.984;5.650;2023-07-29T11:22:59;28.00;99.90
44823;DHT22;51097;51.984;5.650;2023-07-29T11:25:26;27.90;99.90
44823;DHT22;51097;51.984;5.650;2023-07-29T11:27:57;27.80;99.90
44823;DHT22;51097;51.984;5.650;2023-07-29T11:30:23;27.60;99.90
44823;DHT22;51097;51.984;5.650;2023-07-29T11:32:50;27.30;99.90
44823;DHT22;51097;51.984;5.650;2023-07-29T11:35:17;27.00;99.90
44823;DHT22;51097;51.984;5.650;2023-07-29T11:37:48;26.70;99.90
44823;DHT22;51097;51.984;5.650;2023-07-29T11:40:21;26.60;99.90
44823;DHT22;51097;51.984;5.650;2023-07-29T11:42:47;26.40;99.90
44823;DHT22;51097;51.984;5.650;2023-07-29T11:45:14;26.20;99.90
44823;DHT22;51097;51.984;5.650;2023-07-29T11:47:40;26.00;99.90
44823;DHT22;51097;51.984;5.650;2023-07-29T11:50:11;26.00;99.90
44823;DHT22;51097;51.984;5.650;2023-07-29T11:52:44;25.80;99.90
44823;DHT22;51097;51.984;5.650;2023-07-29T11:55:12;25.70;99.90
44823;DHT22;51097;51.984;5.650;2023-07-29T11:57:38;25.60;99.90
44823;DHT22;51097;51.984;5.650;2023-07-29T12:00:06;25.40;99.90
44823;DHT22;51097;51.984;5.650;2023-07-29T12:02:33;25.20;99.90
44823;DHT22;51097;51.984;5.650;2023-07-29T12:05:02;25.10;99.90
44823;DHT22;51097;51.984;5.650;2023-07-29T12:07:28;25.00;99.90
44823;DHT22;51097;51.984;5.650;2023-07-29T12:09:54;24.80;99.90
44823;DHT22;51097;51.984;5.650;2023-07-29T12:12:22;24.70;99.90
44823;DHT22;51097;51.984;5.650;2023-07-29T12:14:48;24.80;99.90
44823;DHT22;51097;51.984;5.650;2023-07-29T12:17:14;24.70;99.90
44823;DHT22;51097;51.984;5.650;2023-07-29T12:19:41;24.70;99.90
44823;DHT22;51097;51.984;5.650;2023-07-29T12:22:09;24.80;99.90
44823;DHT22;51097;51.984;5.650;2023-07-29T12:24:40;24.80;99.90
44823;DHT22;51097;51.984;5.650;2023-07-29T12:27:11;24.80;99.90
44823;DHT22;51097;51.984;5.650;2023-07-29T12:29:42;25.00;99.90
44823;DHT22;51097;51.984;5.650;2023-07-29T12:32:08;25.00;99.90
44823;DHT22;51097;51.984;5.650;2023-07-29T12:34:36;25.20;99.90
44823;DHT22;51097;51.984;5.650;2023-07-29T12:37:03;25.40;99.90
44823;DHT22;51097;51.984;5.650;2023-07-29T12:39:31;25.50;99.90
44823;DHT22;51097;51.984;5.650;2023-07-29T12:41:59;25.60;99.90
44823;DHT22;51097;51.984;5.650;2023-07-29T12:44:26;25.70;99.90
44823;DHT22;51097;51.984;5.650;2023-07-29T12:46:52;25.80;99.90
44823;DHT22;51097;51.984;5.650;2023-07-29T12:49:18;26.00;99.90
44823;DHT22;51097;51.984;5.650;2023-07-29T12:51:46;26.10;99.90
44823;DHT22;51097;51.984;5.650;2023-07-29T12:54:12;26.10;99.90
44823;DHT22;51097;51.984;5.650;2023-07-29T12:56:38;26.40;99.90
44823;DHT22;51097;51.984;5.650;2023-07-29T12:59:05;26.40;99.90
44823;DHT22;51097;51.984;5.650;2023-07-29T13:01:30;26.50;99.90
44823;DHT22;51097;51.984;5.650;2023-07-29T13:03:56;26.70;99.90
44823;DHT22;51097;51.984;5.650;2023-07-29T13:06:22;27.00;99.90
44823;DHT22;51097;51.984;5.650;2023-07-29T13:08:47;27.20;99.90
44823;DHT22;51097;51.984;5.650;2023-07-29T13:11:14;27.40;99.90
44823;DHT22;51097;51.984;5.650;2023-07-29T13:13:40;27.60;99.90
44823;DHT22;51097;51.984;5.650;2023-07-29T13:16:06;28.00;99.90
44823;DHT22;51097;51.984;5.650;2023-07-29T13:18:32;28.10;99.90
44823;DHT22;51097;51.984;5.650;2023-07-29T13:20:57;28.30;99.90
44823;DHT22;51097;51.984;5.650;2023-07-29T13:23:24;28.40;99.90
44823;DHT22;51097;51.984;5.650;2023-07-29T13:25:50;28.30;99.90
44823;DHT22;51097;51.984;5.650;2023-07-29T13:28:16;28.50;99.90
44823;DHT22;51097;51.984;5.650;2023-07-29T13:30:42;28.30;99.90
44823;DHT22;51097;51.984;5.650;2023-07-29T13:33:08;28.20;99.90
44823;DHT22;51097;51.984;5.650;2023-07-29T13:35:34;28.10;99.90
44823;DHT22;51097;51.984;5.650;2023-07-29T13:38:00;28.00;99.90
44823;DHT22;51097;51.984;5.650;2023-07-29T13:40:26;27.90;99.90
44823;DHT22;51097;51.984;5.650;2023-07-29T13:42:52;27.80;99.90
44823;DHT22;51097;51.984;5.650;2023-07-29T13:45:18;27.70;99.90
44823;DHT22;51097;51.984;5.650;2023-07-29T13:47:44;27.70;99.90
44823;DHT22;51097;51.984;5.650;2023-07-29T13:50:10;27.60;99.90
44823;DHT22;51097;51.984;5.650;2023-07-29T13:52:36;27.60;99.90
44823;DHT22;51097;51.984;5.650;2023-07-29T13:55:05;27.40;99.90
44823;DHT22;51097;51.984;5.650;2023-07-29T13:57:32;27.30;99.90
44823;DHT22;51097;51.984;5.650;2023-07-29T13:59:58;27.20;99.90
44823;DHT22;51097;51.984;5.650;2023-07-29T14:02:24;27.20;99.90
44823;DHT22;51097;51.984;5.650;2023-07-29T14:04:51;27.20;99.90
44823;DHT22;51097;51.984;5.650;2023-07-29T14:07:18;27.20;99.90
44823;DHT22;51097;51.984;5.650;2023-07-29T14:09:44;27.10;99.90
44823;DHT22;51097;51.984;5.650;2023-07-29T14:12:10;27.30;99.90
44823;DHT22;51097;51.984;5.650;2023-07-29T14:14:40;27.30;99.90
44823;DHT22;51097;51.984;5.650;2023-07-29T14:17:06;27.40;99.90
44823;DHT22;51097;51.984;5.650;2023-07-29T14:19:34;27.40;99.90
44823;DHT22;51097;51.984;5.650;2023-07-29T14:21:59;27.50;99.90
44823;DHT22;51097;51.984;5.650;2023-07-29T14:24:25;27.50;99.90
44823;DHT22;51097;51.984;5.650;2023-07-29T14:26:51;27.70;99.90
44823;DHT22;51097;51.984;5.650;2023-07-29T14:29:16;27.80;99.90
44823;DHT22;51097;51.984;5.650;2023-07-29T14:31:45;28.10;99.90
44823;DHT22;51097;51.984;5.650;2023-07-29T14:34:11;28.30;99.90
44823;DHT22;51097;51.984;5.650;2023-07-29T14:36:37;28.70;99.90
44823;DHT22;51097;51.984;5.650;2023-07-29T14:39:02;29.00;99.90
44823;DHT22;51097;51.984;5.650;2023-07-29T14:41:28;29.20;99.90
44823;DHT22;51097;51.984;5.650;2023-07-29T14:43:54;29.60;99.90
44823;DHT22;51097;51.984;5.650;2023-07-29T14:46:20;29.80;99.90
44823;DHT22;51097;51.984;5.650;2023-07-29T14:48:45;30.30;99.90
44823;DHT22;51097;51.984;5.650;2023-07-29T14:51:12;30.70;99.90
44823;DHT22;51097;51.984;5.650;2023-07-29T14:53:38;31.00;99.90
44823;DHT22;51097;51.984;5.650;2023-07-29T14:56:03;31.30;99.90
44823;DHT22;51097;51.984;5.650;2023-07-29T14:58:29;31.40;99.90
44823;DHT22;51097;51.984;5.650;2023-07-29T15:00:55;31.70;99.90
44823;DHT22;51097;51.984;5.650;2023-07-29T15:03:21;32.00;99.90
44823;DHT22;51097;51.984;5.650;2023-07-29T15:05:47;32.00;99.90
44823;DHT22;51097;51.984;5.650;2023-07-29T15:08:12;32.00;99.00
44823;DHT22;51097;51.984;5.650;2023-07-29T15:10:38;32.10;99.30
44823;DHT22;51097;51.984;5.650;2023-07-29T15:13:03;32.10;97.80
44823;DHT22;51097;51.984;5.650;2023-07-29T15:15:29;32.00;97.80
44823;DHT22;51097;51.984;5.650;2023-07-29T15:17:54;31.90;97.20
44823;DHT22;51097;51.984;5.650;2023-07-29T15:20:22;31.70;97.10
44823;DHT22;51097;51.984;5.650;2023-07-29T15:22:47;31.60;97.80
44823;DHT22;51097;51.984;5.650;2023-07-29T15:25:13;31.50;96.00
44823;DHT22;51097;51.984;5.650;2023-07-29T15:27:39;31.30;97.90
44823;DHT22;51097;51.984;5.650;2023-07-29T15:30:06;31.40;97.10
44823;DHT22;51097;51.984;5.650;2023-07-29T15:32:32;31.40;97.50
44823;DHT22;51097;51.984;5.650;2023-07-29T15:34:57;31.40;97.40
44823;DHT22;51097;51.984;5.650;2023-07-29T15:37:25;31.50;97.00
44823;DHT22;51097;51.984;5.650;2023-07-29T15:39:51;31.50;98.10